Time;durP1;ratioP1;P1;durP2;ratioP2;P2;SDS_P1;SDS_P2;PMS_P1;PMS_P2;Temp;Humidity;BMP_temperature;BMP_pressure;BME280_temperature;BME280_humidity;BME280_pressure;Samples;Min_cycle;Max_cycle;Signal;HPM_P1;HPM_P2
2022/03/14 00:00:10;;;;;;;6.05;5.35;;;7.00;72.30;;;;;;5033800;28;20273;-67
2022/03/14 00:02:37;;;;;;;7.07;5.60;;;6.90;72.30;;;;;;5033670;28;20548;-65
2022/03/14 00:05:04;;;;;;;12.43;6.90;;;7.00;72.80;;;;;;5032992;28;20196;-65
2022/03/14 00:07:37;;;;;;;9.23;7.05;;;7.00;73.20;;;;;;5033494;28;20239;-64
2022/03/14 00:10:04;;;;;;;6.43;5.60;;;7.00;73.40;;;;;;5033652;28;20193;-66
2022/03/14 00:12:31;;;;;;;9.13;6.38;;;7.00;74.20;;;;;;5019283;28;20250;-64
2022/03/14 00:15:06;;;;;;;11.23;6.07;;;7.00;74.30;;;;;;5026096;28;20234;-66
2022/03/14 00:17:32;;;;;;;8.57;6.40;;;7.00;74.40;;;;;;5033404;28;20224;-66
2022/03/14 00:19:59;;;;;;;7.43;5.47;;;7.00;74.60;;;;;;5033560;28;20166;-67
2022/03/14 00:22:26;;;;;;;9.55;6.47;;;7.10;74.90;;;;;;5033320;28;20165;-65
2022/03/14 00:24:52;;;;;;;6.90;6.25;;;7.10;74.10;;;;;;5032741;28;20415;-65
2022/03/14 00:27:17;;;;;;;6.70;4.95;;;7.20;73.60;;;;;;5033614;28;20173;-66
2022/03/14 00:29:43;;;;;;;8.97;7.63;;;7.20;73.30;;;;;;5015904;28;20703;-66
2022/03/14 00:32:09;;;;;;;8.60;7.27;;;7.20;73.00;;;;;;5013645;28;20493;-67
2022/03/14 00:34:35;;;;;;;8.15;6.65;;;7.30;72.80;;;;;;5013148;28;20330;-66
2022/03/14 00:37:01;;;;;;;15.60;6.80;;;7.30;72.90;;;;;;5013532;28;20221;-66
2022/03/14 00:39:27;;;;;;;10.23;6.40;;;7.40;73.10;;;;;;5013462;28;20678;-66
2022/03/14 00:41:53;;;;;;;7.03;6.38;;;7.40;73.30;;;;;;5013666;28;20185;-65
2022/03/14 00:44:19;;;;;;;7.50;6.00;;;7.40;73.70;;;;;;5025942;28;20207;-67
2022/03/14 00:46:45;;;;;;;7.83;6.13;;;7.40;74.30;;;;;;5027916;28;20492;-65
2022/03/14 00:49:11;;;;;;;7.10;5.43;;;7.30;74.30;;;;;;5031651;28;20185;-64
2022/03/14 00:51:37;;;;;;;7.30;6.45;;;7.40;74.30;;;;;;5032973;28;20273;-65
2022/03/14 00:54:03;;;;;;;8.18;5.78;;;7.40;74.20;;;;;;5034917;28;20171;-65
2022/03/14 00:56:29;;;;;;;6.38;5.35;;;7.40;74.00;;;;;;5037037;28;20524;-65
2022/03/14 00:58:55;;;;;;;9.03;6.00;;;7.40;74.00;;;;;;5021486;28;20172;-65
2022/03/14 01:01:22;;;;;;;6.57;5.80;;;7.40;74.40;;;;;;5017300;28;20216;-65
2022/03/14 01:03:47;;;;;;;7.90;7.13;;;7.60;74.50;;;;;;5016484;28;20181;-65
2022/03/14 01:06:13;;;;;;;8.77;5.90;;;7.50;74.30;;;;;;5016946;28;20197;-65
2022/03/14 01:08:40;;;;;;;6.57;5.17;;;7.60;74.10;;;;;;5016985;28;20259;-65
2022/03/14 01:11:06;;;;;;;5.85;5.15;;;7.70;73.80;;;;;;5016982;28;20904;-65
2022/03/14 01:13:32;;;;;;;5.90;5.40;;;7.80;73.30;;;;;;5030257;28;20227;-65
2022/03/14 01:15:59;;;;;;;6.30;5.60;;;7.80;72.70;;;;;;5036334;28;20527;-64
2022/03/14 01:18:25;;;;;;;7.82;7.03;;;7.90;72.40;;;;;;5036464;28;20411;-64
2022/03/14 01:20:51;;;;;;;6.50;5.18;;;8.00;72.40;;;;;;5036525;28;20170;-66
2022/03/14 01:23:17;;;;;;;5.88;4.95;;;8.00;71.90;;;;;;5036124;28;20182;-66
2022/03/14 01:25:45;;;;;;;7.15;5.90;;;8.10;71.60;;;;;;5036324;28;20266;-66
2022/03/14 01:28:11;;;;;;;14.50;6.38;;;8.10;71.40;;;;;;5021602;28;20174;-66
2022/03/14 01:30:38;;;;;;;8.87;5.60;;;8.20;71.10;;;;;;5016698;28;20177;-65
2022/03/14 01:33:04;;;;;;;10.75;6.18;;;8.20;70.80;;;;;;5016313;28;20406;-70
2022/03/14 01:35:30;;;;;;;8.52;7.13;;;8.30;70.80;;;;;;5016403;28;20194;-65
2022/03/14 01:37:56;;;;;;;7.77;5.87;;;8.40;71.30;;;;;;5016507;28;20200;-65
2022/03/14 01:40:22;;;;;;;13.68;6.75;;;8.50;71.60;;;;;;5016573;28;20552;-65
2022/03/14 01:42:48;;;;;;;6.70;5.90;;;8.60;72.00;;;;;;5028030;28;20535;-66
2022/03/14 01:45:16;;;;;;;10.80;6.13;;;8.70;71.90;;;;;;5035665;28;20229;-66
2022/03/14 01:47:42;;;;;;;6.47;5.57;;;8.80;72.20;;;;;;5035869;28;20170;-65
2022/03/14 01:50:09;;;;;;;8.90;8.00;;;8.90;72.50;;;;;;5036192;28;20224;-66
2022/03/14 01:52:35;;;;;;;12.75;7.07;;;9.00;73.50;;;;;;5036067;28;20498;-65
2022/03/14 01:55:02;;;;;;;11.13;7.07;;;9.10;75.40;;;;;;5035636;28;20189;-65
2022/03/14 01:57:28;;;;;;;9.68;5.50;;;9.20;76.30;;;;;;5022869;28;20240;-64
2022/03/14 01:59:54;;;;;;;7.05;6.07;;;9.30;77.50;;;;;;5015886;28;20171;-66
2022/03/14 02:02:20;;;;;;;5.32;4.82;;;9.30;78.10;;;;;;5015861;28;20205;-66
2022/03/14 02:04:46;;;;;;;8.53;6.20;;;9.40;81.40;;;;;;5014511;28;20306;-65
2022/03/14 02:07:12;;;;;;;8.65;5.40;;;9.40;84.00;;;;;;5015936;28;20534;-66
2022/03/14 02:09:38;;;;;;;10.10;6.97;;;9.50;84.50;;;;;;5015807;28;20171;-64
2022/03/14 02:12:05;;;;;;;19.50;6.23;;;9.50;85.20;;;;;;5025845;28;20938;-66
2022/03/14 02:14:31;;;;;;;5.63;5.13;;;9.50;86.40;;;;;;5034196;28;20200;-65
2022/03/14 02:16:56;;;;;;;7.60;5.87;;;9.50;88.30;;;;;;5033468;28;20178;-65
2022/03/14 02:19:22;;;;;;;8.13;6.03;;;9.50;90.10;;;;;;5034232;28;20260;-66
2022/03/14 02:21:48;;;;;;;9.70;6.87;;;9.50;91.50;;;;;;5035440;28;20197;-65
2022/03/14 02:24:14;;;;;;;8.60;6.30;;;9.60;93.00;;;;;;5034744;28;20409;-65
2022/03/14 02:26:43;;;;;;;8.50;5.27;;;9.50;93.40;;;;;;5035206;28;20571;-64
2022/03/14 02:29:10;;;;;;;7.80;6.10;;;9.60;96.20;;;;;;5035217;28;20741;-64
2022/03/14 02:31:36;;;;;;;6.72;5.32;;;9.60;97.50;;;;;;5015992;28;20194;-65
2022/03/14 02:34:07;;;;;;;7.93;7.15;;;9.60;98.30;;;;;;5014920;28;20235;-65
2022/03/14 02:36:34;;;;;;;6.60;6.00;;;9.60;99.40;;;;;;5015536;28;20166;-65
2022/03/14 02:38:59;;;;;;;9.02;6.60;;;9.70;99.90;;;;;;5015501;28;20217;-65
2022/03/14 02:41:26;;;;;;;7.40;6.07;;;9.70;99.90;;;;;;5015385;28;20171;-66
2022/03/14 02:43:51;;;;;;;5.55;5.05;;;9.70;99.90;;;;;;5014867;28;20163;-65
2022/03/14 02:46:17;;;;;;;6.53;5.73;;;9.70;99.90;;;;;;5033123;28;20233;-65
2022/03/14 02:48:43;;;;;;;6.90;6.30;;;9.80;99.90;;;;;;5033681;28;20912;-65
2022/03/14 02:51:08;;;;;;;7.10;5.80;;;9.70;99.90;;;;;;5035170;28;20640;-65
2022/03/14 02:53:34;;;;;;;8.23;5.93;;;9.80;99.90;;;;;;5034574;28;20170;-66
2022/03/14 02:56:00;;;;;;;6.90;6.00;;;9.80;99.90;;;;;;5033276;28;20554;-65
2022/03/14 02:58:28;;;;;;;9.57;6.43;;;9.70;99.90;;;;;;5034687;28;20405;-66
2022/03/14 03:00:54;;;;;;;9.02;6.22;;;9.60;99.90;;;;;;5020659;28;20201;-66
2022/03/14 03:03:20;;;;;;;7.57;6.00;;;9.50;99.90;;;;;;5034224;28;20189;-66
2022/03/14 03:05:45;;;;;;;6.87;5.93;;;9.50;99.90;;;;;;5034588;28;20202;-66
2022/03/14 03:08:12;;;;;;;6.67;4.80;;;9.30;99.90;;;;;;5017538;28;20190;-65
2022/03/14 03:10:38;;;;;;;5.78;3.47;;;9.30;99.90;;;;;;5014865;28;20213;-65
2022/03/14 03:13:03;;;;;;;4.77;3.57;;;9.30;99.90;;;;;;5014542;28;20174;-65
2022/03/14 03:15:29;;;;;;;4.97;3.10;;;9.20;99.90;;;;;;5014470;28;20273;-65
2022/03/14 03:17:55;;;;;;;4.43;3.35;;;9.20;99.90;;;;;;5014476;28;20214;-66
2022/03/14 03:20:22;;;;;;;3.70;3.00;;;9.10;99.90;;;;;;5015717;28;20190;-66
2022/03/14 03:22:49;;;;;;;2.70;2.28;;;9.10;99.90;;;;;;5014439;28;20497;-65
2022/03/14 03:25:15;;;;;;;1.73;1.60;;;9.00;99.90;;;;;;5015056;28;20201;-65
2022/03/14 03:27:41;;;;;;;3.50;1.77;;;9.00;99.90;;;;;;5014390;28;20182;-65
2022/03/14 03:30:07;;;;;;;2.20;2.00;;;9.00;99.90;;;;;;5014400;28;20167;-66
2022/03/14 03:32:34;;;;;;;2.17;1.97;;;8.90;99.90;;;;;;5014596;28;20253;-65
2022/03/14 03:35:00;;;;;;;2.47;1.65;;;8.90;99.90;;;;;;5013849;28;20433;-68
2022/03/14 03:37:25;;;;;;;2.60;1.70;;;8.80;99.90;;;;;;5014425;28;20188;-67
2022/03/14 03:39:51;;;;;;;1.93;1.83;;;8.80;99.90;;;;;;5026977;28;20977;-66
2022/03/14 03:42:17;;;;;;;3.00;2.17;;;8.80;99.90;;;;;;5033821;28;20174;-65
2022/03/14 03:44:43;;;;;;;2.38;2.17;;;8.70;99.90;;;;;;5033338;28;20228;-66
2022/03/14 03:47:09;;;;;;;1.87;1.17;;;8.70;99.90;;;;;;5033810;28;20578;-66
2022/03/14 03:49:35;;;;;;;1.80;1.60;;;8.70;99.90;;;;;;5033892;28;20221;-66
2022/03/14 03:52:01;;;;;;;1.83;1.70;;;8.60;99.90;;;;;;5033798;28;20177;-66
2022/03/14 03:54:26;;;;;;;2.87;1.60;;;8.60;99.90;;;;;;5021534;28;20203;-65
2022/03/14 03:56:52;;;;;;;1.90;1.70;;;8.60;99.90;;;;;;5013911;28;20176;-65
2022/03/14 03:59:18;;;;;;;1.50;1.40;;;8.50;99.90;;;;;;5014041;28;20175;-65
2022/03/14 04:01:44;;;;;;;1.50;1.40;;;8.50;99.90;;;;;;5013821;28;20171;-66
2022/03/14 04:04:11;;;;;;;1.70;1.38;;;8.50;99.90;;;;;;5013438;28;20184;-66
2022/03/14 04:06:37;;;;;;;2.05;1.50;;;8.50;99.90;;;;;;5013924;28;20512;-66
2022/03/14 04:09:04;;;;;;;1.30;1.30;;;8.40;99.90;;;;;;5014697;28;20201;-66
2022/03/14 04:11:29;;;;;;;1.85;1.40;;;8.40;99.90;;;;;;5021078;28;20234;-65
2022/03/14 04:13:57;;;;;;;1.50;1.40;;;8.40;99.90;;;;;;5033065;28;20166;-64
2022/03/14 04:16:24;;;;;;;1.70;1.60;;;8.40;99.90;;;;;;5033310;28;20274;-67
2022/03/14 04:18:50;;;;;;;1.67;1.60;;;8.40;99.90;;;;;;5031610;28;20251;-66
2022/03/14 04:21:16;;;;;;;1.73;1.63;;;8.40;99.90;;;;;;5031644;28;20266;-67
2022/03/14 04:23:42;;;;;;;1.50;1.40;;;8.40;99.90;;;;;;5013118;28;20174;-66
2022/03/14 04:26:09;;;;;;;2.03;1.93;;;8.50;99.90;;;;;;5013308;28;20553;-66
2022/03/14 04:28:36;;;;;;;2.13;2.03;;;8.40;99.90;;;;;;5013968;28;20459;-69
2022/03/14 04:31:05;;;;;;;2.10;1.88;;;8.40;99.90;;;;;;5014928;28;20213;-67
2022/03/14 04:33:31;;;;;;;1.63;1.52;;;8.40;99.90;;;;;;5013206;28;20220;-66
2022/03/14 04:35:57;;;;;;;1.60;1.50;;;8.40;99.90;;;;;;5025068;28;20670;-66
2022/03/14 04:38:27;;;;;;;1.80;1.52;;;8.40;99.90;;;;;;5033308;28;20197;-65
2022/03/14 04:40:54;;;;;;;1.60;1.50;;;8.40;99.90;;;;;;5033321;28;20256;-66
2022/03/14 04:43:21;;;;;;;1.70;1.60;;;8.40;99.90;;;;;;5032972;28;20178;-66
2022/03/14 04:45:47;;;;;;;2.22;2.03;;;8.40;99.90;;;;;;5032958;28;20232;-65
2022/03/14 04:48:14;;;;;;;2.08;1.98;;;8.40;99.90;;;;;;5030527;28;20170;-65
2022/03/14 04:50:41;;;;;;;2.63;2.40;;;8.50;99.90;;;;;;5013305;28;20638;-64
2022/03/14 04:53:07;;;;;;;10.57;4.95;;;8.50;99.90;;;;;;5012849;28;20562;-65
2022/03/14 04:55:37;;;;;;;5.00;4.00;;;8.40;99.90;;;;;;5013148;28;20215;-64
2022/03/14 04:58:06;;;;;;;7.07;4.95;;;8.40;99.90;;;;;;5013232;28;20174;-65
2022/03/14 05:00:33;;;;;;;5.10;4.45;;;8.40;99.90;;;;;;5013086;28;20202;-65
2022/03/14 05:03:06;;;;;;;8.73;6.88;;;8.40;99.90;;;;;;5013663;28;20673;-65
2022/03/14 05:05:32;;;;;;;10.38;6.10;;;8.30;99.90;;;;;;5032733;28;20291;-65
2022/03/14 05:07:58;;;;;;;6.32;5.35;;;8.30;99.90;;;;;;5032840;28;20251;-65
2022/03/14 05:10:24;;;;;;;5.77;5.10;;;8.30;99.90;;;;;;5033251;28;20195;-65
2022/03/14 05:12:51;;;;;;;6.65;4.50;;;8.30;99.90;;;;;;5032832;28;20174;-65
2022/03/14 05:15:17;;;;;;;7.45;5.90;;;8.30;99.90;;;;;;5032516;28;20193;-65
2022/03/14 05:17:44;;;;;;;9.15;5.60;;;8.30;99.90;;;;;;5030170;28;20257;-65
2022/03/14 05:20:10;;;;;;;7.60;5.57;;;8.40;99.90;;;;;;5013041;28;20171;-65
2022/03/14 05:22:43;;;;;;;6.00;5.40;;;8.30;99.90;;;;;;5012957;28;20531;-65
2022/03/14 05:25:12;;;;;;;4.82;4.35;;;8.30;99.90;;;;;;5012713;28;20754;-66
2022/03/14 05:27:39;;;;;;;6.40;5.80;;;8.30;99.90;;;;;;5013459;28;20182;-65
2022/03/14 05:30:08;;;;;;;4.97;3.15;;;8.40;99.90;;;;;;5013008;28;20171;-65
2022/03/14 05:32:37;;;;;;;10.75;6.00;;;8.40;99.90;;;;;;5015549;28;20175;-66
2022/03/14 05:35:03;;;;;;;11.23;6.75;;;8.30;99.90;;;;;;5032178;28;20201;-66
2022/03/14 05:37:29;;;;;;;13.60;6.50;;;8.40;99.90;;;;;;5031478;28;20213;-66
2022/03/14 05:39:56;;;;;;;7.97;5.13;;;8.40;99.90;;;;;;5033155;28;20570;-66
2022/03/14 05:42:23;;;;;;;7.28;5.20;;;8.40;99.90;;;;;;5036234;28;20413;-66
2022/03/14 05:44:48;;;;;;;9.02;6.43;;;8.40;99.90;;;;;;5035645;28;20190;-66
2022/03/14 05:47:14;;;;;;;7.33;5.77;;;8.40;99.90;;;;;;5035570;28;20336;-65
2022/03/14 05:49:40;;;;;;;5.47;4.73;;;8.40;99.90;;;;;;5035951;28;20170;-66
2022/03/14 05:52:06;;;;;;;13.10;7.00;;;8.40;99.90;;;;;;5036123;28;20169;-66
2022/03/14 05:54:34;;;;;;;6.82;5.40;;;8.40;99.90;;;;;;5035489;28;20240;-65
2022/03/14 05:57:00;;;;;;;9.10;5.32;;;8.30;99.90;;;;;;5035736;28;20168;-66
2022/03/14 05:59:25;;;;;;;10.50;6.50;;;8.40;99.90;;;;;;5034635;28;20691;-66
2022/03/14 06:01:51;;;;;;;7.23;6.10;;;8.30;99.90;;;;;;5034505;28;20411;-65
2022/03/14 06:04:17;;;;;;;9.57;6.50;;;8.30;99.90;;;;;;5015657;28;20173;-65
2022/03/14 06:06:43;;;;;;;6.70;5.53;;;8.30;99.90;;;;;;5015924;28;20401;-65
2022/03/14 06:09:08;;;;;;;7.97;5.03;;;8.30;99.90;;;;;;5016014;28;20167;-66
2022/03/14 06:11:34;;;;;;;6.17;5.27;;;8.30;99.90;;;;;;5015910;28;20173;-66
2022/03/14 06:14:00;;;;;;;6.55;5.32;;;8.30;99.90;;;;;;5015365;28;20531;-66
2022/03/14 06:16:26;;;;;;;7.60;4.80;;;8.20;99.90;;;;;;5015556;28;20169;-66
2022/03/14 06:18:51;;;;;;;5.30;4.90;;;8.20;99.90;;;;;;5024173;28;20702;-66
2022/03/14 06:21:17;;;;;;;4.20;3.37;;;8.30;99.90;;;;;;5013599;28;20250;-66
2022/03/14 06:23:43;;;;;;;2.27;2.17;;;8.20;99.90;;;;;;5013270;28;20184;-67
2022/03/14 06:26:09;;;;;;;1.53;1.43;;;8.30;99.90;;;;;;5013220;28;20866;-66
2022/03/14 06:28:34;;;;;;;2.10;1.50;;;8.20;99.90;;;;;;5013161;28;20161;-65
2022/03/14 06:31:00;;;;;;;1.50;1.40;;;8.20;99.90;;;;;;5013313;28;20176;-65
2022/03/14 06:33:26;;;;;;;3.13;1.73;;;8.30;99.90;;;;;;5031098;28;20167;-65
2022/03/14 06:35:52;;;;;;;0.93;0.93;;;8.30;99.90;;;;;;5034815;28;20198;-64
2022/03/14 06:38:17;;;;;;;1.43;1.33;;;8.20;99.90;;;;;;5035052;28;20264;-65
2022/03/14 06:40:43;;;;;;;0.87;0.87;;;8.30;99.90;;;;;;5034961;28;20484;-65
2022/03/14 06:43:13;;;;;;;0.93;0.93;;;8.40;99.90;;;;;;5033287;28;20619;-65
2022/03/14 06:45:39;;;;;;;1.30;1.20;;;8.80;99.90;;;;;;5035222;28;20462;-65
2022/03/14 06:48:06;;;;;;;1.60;1.52;;;9.30;99.90;;;;;;5017000;28;20629;-65
2022/03/14 06:50:32;;;;;;;1.10;1.08;;;9.90;99.90;;;;;;5014727;28;20193;-65
2022/03/14 06:53:01;;;;;;;0.50;0.50;;;10.20;99.90;;;;;;5013558;28;20170;-65
2022/03/14 06:55:26;;;;;;;0.60;0.60;;;10.40;99.90;;;;;;5013347;28;20285;-66
2022/03/14 06:57:52;;;;;;;1.83;1.00;;;10.50;99.90;;;;;;5015355;28;20202;-65
2022/03/14 07:00:18;;;;;;;3.50;1.30;;;10.60;99.90;;;;;;5014880;28;20963;-64
2022/03/14 07:02:44;;;;;;;1.67;1.03;;;10.70;99.90;;;;;;5031095;28;20187;-66
2022/03/14 07:05:16;;;;;;;2.50;0.80;;;10.90;99.90;;;;;;5034439;28;20195;-65
2022/03/14 07:07:42;;;;;;;0.60;0.60;;;10.90;99.90;;;;;;5033863;28;20488;-65
2022/03/14 07:10:09;;;;;;;0.73;0.70;;;11.10;99.90;;;;;;5034611;28;20166;-65
2022/03/14 07:12:45;;;;;;;0.70;0.70;;;11.40;99.90;;;;;;5034554;28;20179;-64
2022/03/14 07:15:16;;;;;;;1.37;1.27;;;11.70;99.90;;;;;;5034328;28;20196;-65
2022/03/14 07:17:43;;;;;;;1.73;1.37;;;12.00;99.90;;;;;;5015116;28;20791;-66
2022/03/14 07:20:10;;;;;;;0.90;0.90;;;12.50;99.90;;;;;;5016696;28;20482;-66
2022/03/14 07:22:54;;;;;;;0.97;0.97;;;13.10;99.90;;;;;;5013779;28;20919;-66
2022/03/14 07:25:21;;;;;;;0.67;0.67;;;13.90;99.90;;;;;;5014999;28;20563;-67
2022/03/14 07:27:47;;;;;;;1.47;0.77;;;14.70;99.90;;;;;;5014331;28;20507;-67
2022/03/14 07:30:14;;;;;;;1.17;1.10;;;15.50;99.90;;;;;;5015602;28;20496;-66
2022/03/14 07:32:39;;;;;;;0.67;0.40;;;16.00;99.90;;;;;;5014780;28;20175;-67
2022/03/14 07:35:05;;;;;;;0.60;0.60;;;16.50;99.90;;;;;;5013835;28;20947;-66
2022/03/14 07:37:31;;;;;;;0.80;0.80;;;17.30;99.90;;;;;;5014439;28;20646;-68
2022/03/14 07:39:56;;;;;;;1.13;0.67;;;18.10;98.60;;;;;;5014847;28;20169;-67
2022/03/14 07:42:22;;;;;;;0.47;0.47;;;18.80;96.80;;;;;;5014334;28;20171;-68
2022/03/14 07:44:48;;;;;;;1.00;0.90;;;19.40;95.10;;;;;;5015684;28;20199;-67
2022/03/14 07:47:14;;;;;;;0.63;0.63;;;19.60;94.60;;;;;;5045383;28;20253;-65
2022/03/14 07:49:39;;;;;;;1.53;0.90;;;20.10;94.80;;;;;;5053818;28;20909;-67
2022/03/14 07:52:06;;;;;;;2.50;0.90;;;20.60;93.80;;;;;;5052598;28;20201;-67
2022/03/14 07:54:32;;;;;;;1.60;1.50;;;21.20;92.50;;;;;;5030717;28;20277;-66
2022/03/14 07:56:59;;;;;;;1.20;1.10;;;21.50;89.20;;;;;;5019051;28;20963;-65
2022/03/14 07:59:24;;;;;;;3.07;1.40;;;21.70;86.10;;;;;;5032754;28;20460;-66
2022/03/14 08:01:50;;;;;;;1.27;0.80;;;21.90;85.10;;;;;;5019288;28;20401;-67
2022/03/14 08:04:16;;;;;;;1.57;0.70;;;21.70;80.40;;;;;;5032557;28;20192;-66
2022/03/14 08:06:42;;;;;;;1.13;0.90;;;20.80;80.10;;;;;;5024988;28;20187;-66
2022/03/14 08:09:11;;;;;;;1.27;1.00;;;20.30;85.60;;;;;;5014015;28;20187;-67
2022/03/14 08:11:38;;;;;;;0.70;0.50;;;20.10;86.20;;;;;;5013827;28;20393;-66
2022/03/14 08:14:05;;;;;;;0.90;0.60;;;20.00;86.10;;;;;;5013494;28;20423;-66
2022/03/14 08:16:31;;;;;;;2.13;0.90;;;20.60;87.20;;;;;;5025746;28;20476;-65
2022/03/14 08:18:56;;;;;;;3.20;0.90;;;20.40;81.20;;;;;;5029566;28;20386;-65
2022/03/14 08:21:23;;;;;;;0.40;0.40;;;20.40;87.00;;;;;;5014775;28;20246;-64
2022/03/14 08:23:50;;;;;;;4.53;1.43;;;20.40;85.80;;;;;;5020180;28;20167;-66
2022/03/14 08:26:17;;;;;;;5.07;0.90;;;20.60;85.20;;;;;;5031348;28;20462;-66
2022/03/14 08:28:43;;;;;;;1.60;1.50;;;20.20;82.20;;;;;;5027950;28;20403;-66
2022/03/14 08:31:10;;;;;;;0.73;0.73;;;19.30;82.40;;;;;;5020547;28;20392;-68
2022/03/14 08:33:40;;;;;;;1.07;0.97;;;18.40;84.10;;;;;;5023274;28;20420;-65
2022/03/14 08:36:06;;;;;;;0.83;0.63;;;17.40;86.40;;;;;;5027791;28;20416;-68
2022/03/14 08:38:32;;;;;;;0.57;0.57;;;16.70;89.10;;;;;;5022378;28;20787;-68
2022/03/14 08:40:58;;;;;;;0.60;0.60;;;16.20;90.50;;;;;;5032786;28;20432;-68
2022/03/14 08:43:24;;;;;;;0.63;0.57;;;15.80;90.10;;;;;;5025235;28;20810;-65
2022/03/14 08:45:50;;;;;;;1.23;0.80;;;15.90;92.00;;;;;;5019763;28;20202;-68
2022/03/14 08:48:16;;;;;;;0.90;0.70;;;16.40;90.90;;;;;;5029796;28;20399;-67
2022/03/14 08:50:41;;;;;;;0.60;0.60;;;16.50;89.30;;;;;;5021896;28;20423;-67
2022/03/14 08:53:08;;;;;;;1.60;1.03;;;16.30;90.20;;;;;;5021308;28;20174;-69
2022/03/14 08:55:34;;;;;;;0.70;0.70;;;16.10;88.50;;;;;;5031138;28;20202;-67
2022/03/14 08:58:00;;;;;;;0.70;0.50;;;16.10;90.00;;;;;;5034142;28;21001;-70
2022/03/14 09:00:27;;;;;;;0.40;0.40;;;16.70;90.70;;;;;;5039566;28;20413;-69
2022/03/14 09:02:54;;;;;;;0.70;0.63;;;18.00;88.80;;;;;;5045181;28;20900;-66
2022/03/14 09:05:21;;;;;;;2.30;1.13;;;19.50;86.60;;;;;;5035095;28;20784;-68
2022/03/14 09:07:47;;;;;;;0.80;0.50;;;20.50;79.20;;;;;;5030322;28;20452;-65
2022/03/14 09:10:14;;;;;;;0.60;0.50;;;21.00;80.70;;;;;;5020546;28;20779;-67
2022/03/14 09:12:42;;;;;;;0.70;0.70;;;21.90;77.80;;;;;;5031677;28;20675;-66
2022/03/14 09:15:10;;;;;;;1.17;0.93;;;22.90;73.00;;;;;;5033107;28;20448;-67
2022/03/14 09:17:48;;;;;;;4.07;2.47;;;23.30;69.20;;;;;;5036591;28;20477;-69
2022/03/14 09:20:15;;;;;;;3.37;2.20;;;23.00;67.80;;;;;;5020642;28;20424;-69
2022/03/14 09:22:43;;;;;;;0.60;0.60;;;22.20;65.40;;;;;;5024317;28;20563;-67
2022/03/14 09:25:09;;;;;;;0.83;0.83;;;21.80;66.50;;;;;;5023938;28;20453;-66
2022/03/14 09:27:35;;;;;;;0.70;0.60;;;22.40;68.60;;;;;;5018097;28;20392;-65
2022/03/14 09:30:00;;;;;;;0.77;0.77;;;23.00;66.80;;;;;;5034745;28;20175;-68
2022/03/14 09:32:26;;;;;;;0.97;0.87;;;23.40;64.20;;;;;;5036457;28;20174;-66
2022/03/14 09:34:52;;;;;;;0.70;0.70;;;24.00;64.30;;;;;;5025501;28;20222;-67
2022/03/14 09:37:17;;;;;;;0.80;0.80;;;24.60;60.10;;;;;;5021215;28;20175;-66
2022/03/14 09:39:43;;;;;;;1.03;0.70;;;24.70;58.80;;;;;;5016502;28;20233;-67
2022/03/14 09:42:12;;;;;;;2.40;0.70;;;24.60;58.20;;;;;;5032173;28;20517;-67
2022/03/14 09:44:42;;;;;;;0.90;0.90;;;24.40;59.40;;;;;;5020193;28;20195;-68
2022/03/14 09:47:09;;;;;;;0.63;0.50;;;24.60;58.10;;;;;;5032666;28;20449;-68
2022/03/14 09:49:36;;;;;;;3.27;0.70;;;24.60;57.40;;;;;;5025275;28;20396;-68
2022/03/14 09:52:03;;;;;;;0.67;0.67;;;24.50;57.00;;;;;;5031949;28;20395;-67
2022/03/14 09:54:29;;;;;;;1.07;0.70;;;24.40;57.90;;;;;;5035450;28;20499;-67
2022/03/14 09:56:56;;;;;;;0.77;0.77;;;24.60;58.10;;;;;;5020439;28;20509;-66
2022/03/14 09:59:22;;;;;;;1.10;0.70;;;24.90;56.40;;;;;;5033105;28;20478;-69
2022/03/14 10:01:48;;;;;;;2.00;1.20;;;24.70;55.10;;;;;;5033655;28;20447;-67
2022/03/14 10:04:14;;;;;;;1.50;0.90;;;24.40;56.40;;;;;;5034333;28;20179;-69
2022/03/14 10:06:40;;;;;;;0.47;0.47;;;24.40;56.00;;;;;;5023166;28;20440;-69
2022/03/14 10:09:06;;;;;;;0.83;0.60;;;24.30;56.00;;;;;;5016976;28;20447;-68
2022/03/14 10:11:32;;;;;;;1.23;0.60;;;24.30;55.30;;;;;;5033037;28;20178;-67
2022/03/14 10:13:58;;;;;;;1.70;0.70;;;24.20;54.10;;;;;;5020916;28;20417;-67
2022/03/14 10:16:26;;;;;;;1.53;0.87;;;23.80;54.80;;;;;;5015824;28;20561;-69
2022/03/14 10:19:02;;;;;;;0.60;0.60;;;23.50;55.60;;;;;;5016873;28;20916;-67
2022/03/14 10:21:35;;;;;;;1.90;0.60;;;23.70;56.40;;;;;;5028303;28;20911;-66
2022/03/14 10:24:07;;;;;;;1.93;0.80;;;23.70;54.00;;;;;;5034665;28;20392;-66
2022/03/14 10:26:34;;;;;;;1.30;1.00;;;23.30;54.30;;;;;;5021465;28;20453;-67
2022/03/14 10:29:03;;;;;;;0.63;0.63;;;22.70;54.30;;;;;;5024104;28;20805;-66
2022/03/14 10:31:37;;;;;;;0.60;0.60;;;22.40;54.40;;;;;;5035392;28;20680;-68
2022/03/14 10:34:05;;;;;;;0.73;0.73;;;21.90;56.70;;;;;;5033556;28;20417;-67
2022/03/14 10:36:57;;;;;;;0.70;0.70;;;21.60;56.80;;;;;;5033477;28;20435;-67
2022/03/14 10:39:25;;;;;;;0.73;0.70;;;21.70;57.30;;;;;;5034010;28;20449;-67
2022/03/14 10:42:04;;;;;;;0.63;0.60;;;22.20;56.20;;;;;;5034834;28;20403;-69
2022/03/14 10:44:31;;;;;;;1.67;0.70;;;22.90;55.10;;;;;;5034203;28;20423;-67
2022/03/14 10:46:59;;;;;;;1.93;0.70;;;22.90;56.00;;;;;;5017812;28;20790;-65
2022/03/14 10:49:29;;;;;;;4.23;0.90;;;23.20;54.60;;;;;;5022335;28;20815;-69
2022/03/14 10:51:59;;;;;;;1.37;0.90;;;23.00;54.80;;;;;;5027269;28;20487;-67
2022/03/14 10:54:26;;;;;;;0.73;0.73;;;23.00;55.00;;;;;;5021234;28;20483;-70
2022/03/14 10:57:14;;;;;;;0.60;0.60;;;22.80;53.50;;;;;;5032712;28;20398;-70
2022/03/14 10:59:47;;;;;;;0.80;0.60;;;22.70;55.80;;;;;;5019788;28;20418;-71
2022/03/14 11:02:21;;;;;;;0.37;0.37;;;22.70;54.90;;;;;;5027405;28;20447;-69
2022/03/14 11:04:52;;;;;;;1.40;0.73;;;23.00;55.20;;;;;;5033953;28;20431;-69
2022/03/14 11:07:28;;;;;;;0.50;0.50;;;23.20;54.00;;;;;;5031977;28;20395;-66
2022/03/14 11:09:56;;;;;;;4.83;1.10;;;23.20;53.60;;;;;;5030373;28;20416;-68
2022/03/14 11:12:24;;;;;;;0.80;0.60;;;22.70;53.50;;;;;;5029522;28;20497;-68
2022/03/14 11:15:01;;;;;;;0.60;0.60;;;22.10;53.20;;;;;;5033357;28;20422;-70
2022/03/14 11:17:29;;;;;;;2.07;1.20;;;21.90;55.10;;;;;;5018457;28;20405;-69
2022/03/14 11:19:58;;;;;;;0.73;0.70;;;21.90;54.90;;;;;;5014366;28;20426;-67
2022/03/14 11:22:26;;;;;;;0.80;0.80;;;21.70;54.00;;;;;;5027225;28;20456;-69
2022/03/14 11:24:56;;;;;;;4.13;1.07;;;21.10;56.20;;;;;;5032482;28;20452;-67
2022/03/14 11:27:35;;;;;;;1.33;1.03;;;20.60;55.20;;;;;;5033318;28;20446;-67
2022/03/14 11:30:09;;;;;;;0.77;0.70;;;20.00;55.50;;;;;;5032003;28;20433;-68
2022/03/14 11:32:41;;;;;;;0.50;0.50;;;19.50;55.90;;;;;;5028927;28;20420;-67
2022/03/14 11:35:08;;;;;;;0.80;0.73;;;19.10;56.30;;;;;;5031323;28;20491;-68
2022/03/14 11:37:35;;;;;;;0.83;0.83;;;18.80;57.20;;;;;;5020814;28;20418;-68
2022/03/14 11:40:04;;;;;;;1.63;0.80;;;18.40;58.10;;;;;;5024200;28;20968;-68
2022/03/14 11:42:29;;;;;;;0.70;0.60;;;18.30;58.40;;;;;;5032538;28;20417;-69
2022/03/14 11:44:56;;;;;;;1.27;0.90;;;18.10;58.50;;;;;;5020195;28;20479;-69
2022/03/14 11:47:24;;;;;;;0.87;0.77;;;17.90;59.30;;;;;;5028311;28;20610;-70
2022/03/14 11:49:51;;;;;;;1.87;0.77;;;17.70;60.00;;;;;;5032992;28;20440;-69
2022/03/14 11:52:19;;;;;;;1.13;0.60;;;17.40;59.10;;;;;;5029951;28;20973;-68
2022/03/14 11:54:48;;;;;;;1.27;0.77;;;17.20;59.90;;;;;;5031189;28;20449;-68
2022/03/14 11:57:35;;;;;;;0.50;0.40;;;17.10;61.00;;;;;;5031698;28;20498;-70
2022/03/14 12:00:32;;;;;;;0.70;0.70;;;16.90;60.20;;;;;;5030962;28;20414;-67
2022/03/14 12:03:05;;;;;;;1.10;1.10;;;17.00;60.80;;;;;;5032867;28;20529;-66
2022/03/14 12:05:38;;;;;;;0.60;0.50;;;16.80;61.80;;;;;;5033321;28;20451;-65
2022/03/14 12:08:14;;;;;;;1.27;1.10;;;16.60;60.90;;;;;;5026775;28;20453;-65
2022/03/14 12:10:40;;;;;;;2.43;1.07;;;16.30;62.80;;;;;;5026862;28;20826;-67
2022/03/14 12:13:06;;;;;;;1.03;0.60;;;16.20;62.80;;;;;;5019730;28;20451;-67
2022/03/14 12:15:44;;;;;;;0.73;0.73;;;16.10;64.90;;;;;;5026318;28;20321;-66
2022/03/14 12:18:22;;;;;;;0.70;0.67;;;16.00;63.30;;;;;;5013510;28;20565;-64
2022/03/14 12:20:49;;;;;;;1.80;0.70;;;15.80;65.80;;;;;;5020111;28;21187;-66
2022/03/14 12:23:32;;;;;;;1.00;0.90;;;15.70;64.60;;;;;;5031530;28;20429;-67
2022/03/14 12:25:59;;;;;;;0.50;0.50;;;15.60;64.20;;;;;;5019192;28;20468;-69
2022/03/14 12:28:34;;;;;;;1.40;0.67;;;15.40;65.70;;;;;;5031332;28;20432;-64
2022/03/14 12:31:11;;;;;;;2.30;0.60;;;15.30;64.50;;;;;;5032930;28;20467;-65
2022/03/14 12:33:41;;;;;;;1.23;1.07;;;15.20;65.30;;;;;;5031858;28;20428;-66
2022/03/14 12:36:22;;;;;;;0.73;0.73;;;15.10;65.80;;;;;;5033075;28;20892;-65
2022/03/14 12:39:07;;;;;;;0.70;0.70;;;15.10;66.20;;;;;;5031895;28;20420;-66
2022/03/14 12:41:33;;;;;;;0.77;0.70;;;14.90;66.20;;;;;;5012267;28;20520;-69
2022/03/14 12:43:59;;;;;;;7.40;1.13;;;14.80;65.10;;;;;;5023191;28;20766;-67
2022/03/14 12:46:27;;;;;;;0.90;0.60;;;14.70;66.10;;;;;;5032262;28;20546;-66
2022/03/14 12:48:56;;;;;;;1.47;0.70;;;14.70;66.50;;;;;;5033111;28;20434;-67
2022/03/14 12:51:29;;;;;;;1.10;1.00;;;14.60;66.00;;;;;;5022835;28;20782;-67
2022/03/14 12:53:59;;;;;;;0.70;0.63;;;14.50;66.60;;;;;;5032187;28;20515;-68